Time;durP1;ratioP1;P1;durP2;ratioP2;P2;SDS_P1;SDS_P2;PMS_P1;PMS_P2;Temp;Humidity;BMP_temperature;BMP_pressure;BME280_temperature;BME280_humidity;BME280_pressure;Samples;Min_cycle;Max_cycle;Signal;HPM_P1;HPM_P2
2020/12/22 00:01:13;;;;;;;10.80;9.77;;;9.10;51.20;;;;;;10428091;28;20596;-71
2020/12/22 00:06:23;;;;;;;11.97;10.43;;;9.10;51.20;;;;;;10430016;28;20225;-71
2020/12/22 00:11:25;;;;;;;11.33;10.13;;;9.10;51.80;;;;;;10425096;28;20252;-71
2020/12/22 00:16:33;;;;;;;11.17;10.07;;;9.10;51.90;;;;;;10431777;28;20237;-71
2020/12/22 00:21:37;;;;;;;10.70;9.70;;;9.10;52.40;;;;;;10432503;28;20601;-71
2020/12/22 00:26:40;;;;;;;11.03;9.93;;;9.10;51.50;;;;;;10428173;28;20279;-71
2020/12/22 00:31:43;;;;;;;11.20;9.67;;;9.10;51.40;;;;;;10419228;28;20226;-71
2020/12/22 00:36:47;;;;;;;10.03;9.03;;;9.20;51.60;;;;;;10419183;28;20224;-71
2020/12/22 00:41:52;;;;;;;9.73;8.83;;;9.30;52.10;;;;;;10417606;28;20509;-71
2020/12/22 00:46:54;;;;;;;9.33;8.47;;;9.20;52.00;;;;;;10416100;28;20225;-71
2020/12/22 00:51:58;;;;;;;8.67;7.87;;;9.30;51.80;;;;;;10420935;28;20233;-71
2020/12/22 00:57:01;;;;;;;8.37;7.57;;;9.30;52.10;;;;;;10421736;28;20227;-71
2020/12/22 01:02:06;;;;;;;7.73;6.93;;;9.30;52.10;;;;;;10417421;28;20209;-71
2020/12/22 01:07:09;;;;;;;7.07;6.20;;;9.30;52.10;;;;;;10415341;28;20247;-71
2020/12/22 01:12:12;;;;;;;5.93;5.43;;;9.40;52.20;;;;;;10416213;28;20230;-71
2020/12/22 01:17:14;;;;;;;6.17;5.67;;;9.40;52.20;;;;;;10420380;28;20393;-71
2020/12/22 01:22:17;;;;;;;5.90;5.40;;;9.50;52.20;;;;;;10413742;28;20312;-71
2020/12/22 01:27:19;;;;;;;6.07;5.47;;;9.50;52.70;;;;;;10418930;28;20239;-71
2020/12/22 01:32:21;;;;;;;5.20;4.80;;;9.60;52.40;;;;;;10413556;28;20237;-71
2020/12/22 01:37:24;;;;;;;5.73;5.20;;;9.60;52.60;;;;;;10419010;28;20284;-71
2020/12/22 01:42:26;;;;;;;5.57;5.00;;;9.70;52.90;;;;;;10414223;28;20588;-71
2020/12/22 01:47:29;;;;;;;4.77;4.37;;;9.80;52.60;;;;;;10411855;28;20233;-70
2020/12/22 01:52:33;;;;;;;4.70;4.30;;;9.80;52.60;;;;;;10416545;28;20230;-71
2020/12/22 01:57:35;;;;;;;5.10;4.70;;;9.80;53.40;;;;;;10412659;28;20255;-71
2020/12/22 02:02:40;;;;;;;4.13;3.83;;;9.90;53.10;;;;;;10416633;28;20234;-71
2020/12/22 02:07:43;;;;;;;4.93;4.47;;;9.90;53.60;;;;;;10421646;28;20668;-71
2020/12/22 02:12:46;;;;;;;4.23;3.83;;;10.00;52.90;;;;;;10413134;28;20234;-71
2020/12/22 02:17:48;;;;;;;4.00;3.60;;;10.00;52.50;;;;;;10425366;28;20233;-71
2020/12/22 02:22:51;;;;;;;3.77;3.40;;;10.00;52.60;;;;;;10410786;28;20224;-71
2020/12/22 02:27:54;;;;;;;3.50;3.20;;;10.00;52.90;;;;;;10414416;28;20234;-71
2020/12/22 02:32:56;;;;;;;3.60;3.30;;;10.10;52.70;;;;;;10415624;28;20237;-71
2020/12/22 02:37:59;;;;;;;3.33;3.10;;;10.20;52.90;;;;;;10409856;28;20242;-71
2020/12/22 02:43:09;;;;;;;3.27;3.00;;;10.20;53.20;;;;;;10417501;28;20312;-71
2020/12/22 02:48:12;;;;;;;3.57;3.27;;;10.30;53.70;;;;;;10409993;28;20793;-74
2020/12/22 02:53:15;;;;;;;3.37;3.13;;;10.30;53.00;;;;;;10413897;28;20309;-74
2020/12/22 02:58:18;;;;;;;2.70;2.50;;;10.40;53.20;;;;;;10418146;28;20232;-75
2020/12/22 03:03:20;;;;;;;5.63;2.43;;;10.40;53.10;;;;;;10414585;28;20253;-74
2020/12/22 03:08:24;;;;;;;2.30;1.90;;;10.50;53.30;;;;;;10414819;28;20225;-74
2020/12/22 03:13:26;;;;;;;2.50;2.30;;;10.50;54.50;;;;;;10417197;28;20237;-74
2020/12/22 03:18:28;;;;;;;1.90;1.80;;;10.70;55.20;;;;;;10414815;28;20242;-74
2020/12/22 03:23:31;;;;;;;2.67;2.47;;;10.80;55.30;;;;;;10413630;28;20231;-74
2020/12/22 03:28:34;;;;;;;2.70;2.50;;;11.00;55.80;;;;;;10406861;28;20238;-74
2020/12/22 03:33:36;;;;;;;2.70;2.50;;;11.20;55.40;;;;;;10413515;28;20240;-74
2020/12/22 03:38:39;;;;;;;2.80;2.60;;;11.40;55.40;;;;;;10413076;28;20730;-74
2020/12/22 03:43:42;;;;;;;2.67;2.47;;;11.50;55.30;;;;;;10417288;28;20769;-75
2020/12/22 03:48:44;;;;;;;3.00;2.80;;;11.60;54.90;;;;;;10422081;28;20228;-74
2020/12/22 03:53:47;;;;;;;3.20;2.90;;;11.70;54.80;;;;;;10414031;28;20626;-74
2020/12/22 03:58:49;;;;;;;2.40;2.30;;;11.70;55.00;;;;;;10416751;28;20796;-75
2020/12/22 04:03:52;;;;;;;2.80;2.60;;;11.80;54.60;;;;;;10428851;28;20222;-74
2020/12/22 04:08:55;;;;;;;2.80;2.60;;;11.90;54.50;;;;;;10420268;28;20229;-75
2020/12/22 04:13:57;;;;;;;2.73;2.53;;;11.90;54.60;;;;;;10417787;28;20237;-75
2020/12/22 04:18:59;;;;;;;3.07;2.80;;;12.00;54.50;;;;;;10429094;28;20912;-74
2020/12/22 04:24:03;;;;;;;2.80;2.60;;;12.00;54.50;;;;;;10423629;28;20234;-74
2020/12/22 04:29:05;;;;;;;2.77;2.40;;;12.10;54.70;;;;;;10420549;28;20348;-74
2020/12/22 04:34:07;;;;;;;2.60;2.40;;;12.10;54.50;;;;;;10430660;28;20237;-74
2020/12/22 04:39:11;;;;;;;2.77;2.57;;;12.20;54.40;;;;;;10421909;28;20234;-74
2020/12/22 04:44:15;;;;;;;2.63;2.30;;;12.20;54.50;;;;;;10423837;28;20314;-75
2020/12/22 04:49:20;;;;;;;2.47;2.37;;;12.30;54.80;;;;;;10423024;28;20290;-74
2020/12/22 04:54:24;;;;;;;2.30;2.20;;;12.30;54.70;;;;;;10416360;28;20299;-75
2020/12/22 04:59:28;;;;;;;2.13;2.00;;;12.40;54.60;;;;;;10414681;28;20709;-75
2020/12/22 05:04:34;;;;;;;2.00;1.90;;;12.50;54.60;;;;;;10405759;28;20651;-74
2020/12/22 05:09:37;;;;;;;1.80;1.70;;;12.50;54.80;;;;;;10407799;28;20229;-75
2020/12/22 05:14:42;;;;;;;1.80;1.70;;;12.60;54.60;;;;;;10406006;28;20229;-75
2020/12/22 05:19:44;;;;;;;2.00;1.70;;;12.70;54.50;;;;;;10411063;28;20701;-75
2020/12/22 05:24:49;;;;;;;1.70;1.60;;;12.80;54.20;;;;;;10421235;28;20238;-74
2020/12/22 05:29:52;;;;;;;1.77;1.67;;;12.80;54.30;;;;;;10412094;28;20594;-75
2020/12/22 05:34:55;;;;;;;1.70;1.60;;;12.90;54.30;;;;;;10418258;28;20226;-75
2020/12/22 05:39:58;;;;;;;1.57;1.47;;;12.90;54.30;;;;;;10424542;28;20224;-75
2020/12/22 05:45:05;;;;;;;1.90;1.80;;;13.00;54.40;;;;;;10412025;28;20231;-74
2020/12/22 05:50:07;;;;;;;2.50;2.30;;;13.00;54.40;;;;;;10415207;28;20224;-72
2020/12/22 05:55:10;;;;;;;1.97;1.57;;;13.10;54.40;;;;;;10413423;28;20218;-72
2020/12/22 06:00:14;;;;;;;2.10;1.73;;;13.10;54.40;;;;;;10422538;28;20224;-73
2020/12/22 06:05:16;;;;;;;1.60;1.50;;;13.10;54.40;;;;;;10420649;28;20228;-71
2020/12/22 06:10:23;;;;;;;1.60;1.50;;;13.20;54.30;;;;;;10415876;28;20224;-71
2020/12/22 06:15:26;;;;;;;1.50;1.40;;;13.20;54.30;;;;;;10423591;28;20241;-71
2020/12/22 06:20:29;;;;;;;1.60;1.50;;;13.20;54.10;;;;;;10416022;28;20249;-71
2020/12/22 06:25:33;;;;;;;1.50;1.40;;;13.20;54.20;;;;;;10422017;28;20238;-72
2020/12/22 06:30:39;;;;;;;1.20;1.20;;;13.30;54.10;;;;;;10410613;28;20316;-71
2020/12/22 06:36:02;;;;;;;1.73;1.10;;;13.30;54.00;;;;;;10421427;28;20317;-71
2020/12/22 06:41:06;;;;;;;1.33;1.23;;;13.30;54.10;;;;;;10416922;28;20220;-71
2020/12/22 06:46:10;;;;;;;1.80;1.70;;;13.40;54.20;;;;;;10422850;28;20231;-72
2020/12/22 06:51:23;;;;;;;1.43;1.33;;;13.40;54.20;;;;;;10411559;28;20606;-71
2020/12/22 06:56:40;;;;;;;1.30;1.20;;;13.40;53.80;;;;;;10417374;28;20234;-71
2020/12/22 07:01:46;;;;;;;1.10;1.10;;;13.50;53.80;;;;;;10412351;28;20741;-71
2020/12/22 07:06:50;;;;;;;1.20;1.10;;;13.50;53.50;;;;;;10423069;28;20221;-72
2020/12/22 07:11:55;;;;;;;8.47;6.87;;;13.60;53.70;;;;;;10416019;28;20236;-72
2020/12/22 07:17:00;;;;;;;2.30;2.10;;;13.60;53.60;;;;;;10414119;28;20777;-72
2020/12/22 07:22:05;;;;;;;1.80;1.70;;;13.60;53.50;;;;;;10420856;28;20575;-72
2020/12/22 07:27:08;;;;;;;1.50;1.40;;;13.70;53.50;;;;;;10415150;28;20268;-71
2020/12/22 07:32:11;;;;;;;1.13;1.10;;;13.70;53.20;;;;;;10413740;28;20603;-71
2020/12/22 07:37:15;;;;;;;1.20;1.10;;;13.70;53.40;;;;;;10417619;28;20230;-69
2020/12/22 07:42:20;;;;;;;1.50;1.40;;;13.70;53.40;;;;;;10410423;28;20232;-68
2020/12/22 07:47:26;;;;;;;1.23;1.20;;;13.80;53.30;;;;;;10407036;28;20229;-70
2020/12/22 07:52:28;;;;;;;1.80;1.70;;;13.80;53.00;;;;;;10424747;28;20610;-71
2020/12/22 07:57:32;;;;;;;1.10;1.10;;;13.80;53.20;;;;;;10435966;28;20233;-70
2020/12/22 08:02:35;;;;;;;1.40;1.30;;;13.80;53.00;;;;;;10421998;28;20312;-74
2020/12/22 08:07:39;;;;;;;2.93;1.80;;;13.90;53.00;;;;;;10414006;28;20622;-74
2020/12/22 08:12:42;;;;;;;1.80;1.70;;;14.00;53.20;;;;;;10407104;28;20272;-73
2020/12/22 08:17:52;;;;;;;1.00;1.00;;;14.00;52.90;;;;;;10414680;28;20292;-74
2020/12/22 08:22:54;;;;;;;1.23;1.20;;;14.00;52.70;;;;;;10419999;28;20229;-74
2020/12/22 08:27:57;;;;;;;1.17;1.10;;;14.10;52.90;;;;;;10406391;28;20705;-74
2020/12/22 08:33:02;;;;;;;0.80;0.80;;;14.10;52.60;;;;;;10419955;28;20233;-73
2020/12/22 08:38:19;;;;;;;0.90;0.90;;;14.10;52.50;;;;;;10420203;28;20325;-73
2020/12/22 08:43:24;;;;;;;1.47;1.37;;;14.20;52.60;;;;;;10417655;28;20263;-73
2020/12/22 08:48:37;;;;;;;1.00;1.00;;;14.30;52.20;;;;;;10422724;28;20239;-70
2020/12/22 08:53:50;;;;;;;1.23;1.10;;;14.30;52.00;;;;;;10427023;28;20325;-70
2020/12/22 08:58:54;;;;;;;0.87;0.87;;;14.30;52.00;;;;;;10420904;28;20239;-70
2020/12/22 09:03:58;;;;;;;1.57;1.47;;;14.40;52.10;;;;;;10432144;28;20244;-70
2020/12/22 09:09:01;;;;;;;1.83;1.30;;;14.40;51.90;;;;;;10425071;28;20702;-70
2020/12/22 09:14:12;;;;;;;2.80;2.47;;;14.50;52.20;;;;;;10416415;28;20603;-71
2020/12/22 09:19:15;;;;;;;1.80;1.70;;;14.50;51.80;;;;;;10418331;28;20226;-70
2020/12/22 09:24:19;;;;;;;1.60;1.50;;;14.50;52.10;;;;;;10414951;28;20308;-70
2020/12/22 09:29:23;;;;;;;1.10;1.10;;;14.60;52.10;;;;;;10416930;28;20233;-70
2020/12/22 09:34:26;;;;;;;1.00;1.00;;;14.60;52.00;;;;;;10429467;28;20244;-70
2020/12/22 09:39:30;;;;;;;1.33;1.20;;;14.60;52.00;;;;;;10428315;28;20221;-70
2020/12/22 09:44:33;;;;;;;1.67;1.57;;;14.70;52.10;;;;;;10431915;28;20226;-70
2020/12/22 09:49:35;;;;;;;1.70;1.10;;;14.80;52.10;;;;;;10428927;28;20232;-70
2020/12/22 09:54:37;;;;;;;2.83;1.30;;;14.80;52.10;;;;;;10435335;28;20597;-70
2020/12/22 09:59:40;;;;;;;1.33;1.23;;;14.80;52.20;;;;;;10424281;28;20221;-70
2020/12/22 10:04:43;;;;;;;1.30;1.20;;;14.80;52.20;;;;;;10432685;28;20221;-70
2020/12/22 10:09:45;;;;;;;2.00;1.90;;;14.70;52.10;;;;;;10425094;28;20311;-70
2020/12/22 10:14:48;;;;;;;1.73;1.63;;;14.80;52.50;;;;;;10418891;28;20233;-70
2020/12/22 10:19:51;;;;;;;1.50;1.40;;;14.70;52.30;;;;;;10426112;28;20247;-70
2020/12/22 10:24:53;;;;;;;1.17;1.07;;;14.80;52.50;;;;;;10418059;28;20225;-70
2020/12/22 10:29:56;;;;;;;1.20;1.10;;;14.80;52.40;;;;;;10423094;28;20218;-70
2020/12/22 10:34:59;;;;;;;1.17;1.10;;;14.90;52.20;;;;;;10415129;28;20232;-70
2020/12/22 10:40:01;;;;;;;1.00;0.90;;;14.90;52.30;;;;;;10415821;28;20220;-70
2020/12/22 10:45:04;;;;;;;0.87;0.87;;;15.00;52.50;;;;;;10415856;28;20234;-71
2020/12/22 10:50:06;;;;;;;0.83;0.83;;;15.10;52.30;;;;;;10409490;28;20221;-70
2020/12/22 10:55:08;;;;;;;3.20;1.53;;;15.20;52.50;;;;;;10423317;28;20234;-70
2020/12/22 11:00:11;;;;;;;1.50;1.37;;;15.20;52.20;;;;;;10411880;28;20312;-70
2020/12/22 11:05:13;;;;;;;1.60;1.50;;;15.30;51.80;;;;;;10426597;28;20287;-70
2020/12/22 11:10:16;;;;;;;2.13;1.20;;;15.30;52.00;;;;;;10418788;28;20300;-70
2020/12/22 11:15:19;;;;;;;1.17;1.17;;;15.30;51.80;;;;;;10417225;28;20637;-70
2020/12/22 11:20:21;;;;;;;1.43;1.10;;;15.30;51.60;;;;;;10422509;28;20685;-70
2020/12/22 11:25:23;;;;;;;2.47;1.40;;;15.40;51.80;;;;;;10417297;28;20225;-70
2020/12/22 11:30:27;;;;;;;1.70;1.40;;;15.40;51.60;;;;;;10422595;28;20229;-70
2020/12/22 11:35:29;;;;;;;1.00;1.00;;;15.40;51.50;;;;;;10427853;28;20234;-70
2020/12/22 11:40:31;;;;;;;0.90;0.90;;;15.30;51.40;;;;;;10427572;28;20232;-70
2020/12/22 11:45:34;;;;;;;0.90;0.80;;;15.30;51.30;;;;;;10411597;28;20236;-70
2020/12/22 11:50:36;;;;;;;0.80;0.80;;;15.30;51.50;;;;;;10415397;28;20228;-70
2020/12/22 11:55:38;;;;;;;0.87;0.80;;;15.30;51.60;;;;;;10423333;28;20444;-70
2020/12/22 12:00:42;;;;;;;1.23;1.00;;;15.30;51.50;;;;;;10417393;28;20371;-70
2020/12/22 12:05:45;;;;;;;0.80;0.80;;;15.30;51.40;;;;;;10425986;28;20581;-70
2020/12/22 12:10:48;;;;;;;1.37;1.20;;;15.20;51.30;;;;;;10416291;28;20721;-70
2020/12/22 12:15:51;;;;;;;1.10;1.00;;;15.20;51.40;;;;;;10410030;28;20233;-70
2020/12/22 12:20:54;;;;;;;1.20;1.10;;;15.20;51.50;;;;;;10419365;28;20621;-70
2020/12/22 12:25:56;;;;;;;1.30;0.90;;;15.30;51.10;;;;;;10419821;28;20243;-70
2020/12/22 12:30:59;;;;;;;1.00;1.00;;;15.30;51.70;;;;;;10426667;28;20236;-70
2020/12/22 12:36:01;;;;;;;2.33;1.90;;;15.30;51.40;;;;;;10426509;28;20233;-71
2020/12/22 12:41:04;;;;;;;2.00;1.80;;;15.40;51.30;;;;;;10413879;28;20244;-70
2020/12/22 12:46:07;;;;;;;1.50;1.40;;;15.40;51.00;;;;;;10420122;28;20611;-68
2020/12/22 12:51:10;;;;;;;1.60;1.50;;;15.50;50.70;;;;;;10413802;28;20240;-69
2020/12/22 12:56:14;;;;;;;7.20;2.23;;;15.50;50.70;;;;;;10426691;28;20661;-69
2020/12/22 13:01:17;;;;;;;0.93;0.93;;;15.60;50.70;;;;;;10419425;28;20225;-69
2020/12/22 13:06:19;;;;;;;0.90;0.90;;;15.70;50.50;;;;;;10417734;28;20238;-70
2020/12/22 13:11:22;;;;;;;0.90;0.83;;;15.70;50.80;;;;;;10420805;28;20248;-69
2020/12/22 13:16:25;;;;;;;2.00;0.80;;;15.70;50.50;;;;;;10421761;28;20229;-69
2020/12/22 13:21:27;;;;;;;1.00;1.00;;;15.70;50.30;;;;;;10421866;28;20236;-69
2020/12/22 13:26:36;;;;;;;0.70;0.70;;;15.70;50.30;;;;;;10423103;28;20238;-69
2020/12/22 13:31:39;;;;;;;1.03;0.80;;;15.80;49.80;;;;;;10423793;28;20220;-70
2020/12/22 13:36:42;;;;;;;1.50;1.40;;;15.80;50.40;;;;;;10426531;28;20225;-70
2020/12/22 13:42:04;;;;;;;1.30;1.20;;;15.80;50.50;;;;;;10414244;28;20630;-69
2020/12/22 13:47:08;;;;;;;1.00;1.00;;;15.90;50.40;;;;;;10422815;28;20225;-68
2020/12/22 13:52:10;;;;;;;1.00;1.00;;;15.90;50.20;;;;;;10424887;28;20221;-67
2020/12/22 13:57:13;;;;;;;1.37;1.17;;;16.00;50.50;;;;;;10440906;28;20225;-67
2020/12/22 14:02:16;;;;;;;1.10;1.10;;;16.00;50.30;;;;;;10419873;28;20226;-70
2020/12/22 14:07:18;;;;;;;1.20;1.10;;;16.00;50.10;;;;;;10422443;28;20786;-70
2020/12/22 14:12:20;;;;;;;0.80;0.80;;;16.10;50.20;;;;;;10410465;28;20226;-70
2020/12/22 14:17:23;;;;;;;1.10;1.00;;;16.10;50.20;;;;;;10424000;28;20229;-69
2020/12/22 14:22:25;;;;;;;1.33;1.03;;;16.10;49.70;;;;;;10422832;28;20312;-68
2020/12/22 14:27:27;;;;;;;1.00;0.90;;;16.10;49.80;;;;;;10421480;28;20311;-67
2020/12/22 14:32:30;;;;;;;1.13;1.00;;;16.10;49.90;;;;;;10413705;28;20245;-67
2020/12/22 14:37:33;;;;;;;0.87;0.87;;;16.10;49.70;;;;;;10411545;28;20243;-68
2020/12/22 14:42:35;;;;;;;1.00;0.90;;;16.10;49.70;;;;;;10418954;28;20244;-68
2020/12/22 14:47:38;;;;;;;1.43;1.33;;;16.10;49.70;;;;;;10417804;28;20233;-68
2020/12/22 14:52:40;;;;;;;1.73;0.90;;;16.10;49.50;;;;;;10419686;28;20239;-68
2020/12/22 14:57:43;;;;;;;1.27;1.20;;;16.00;49.90;;;;;;10421443;28;20639;-68
2020/12/22 15:02:47;;;;;;;3.47;2.73;;;16.00;49.90;;;;;;10418011;28;20284;-68
2020/12/22 15:07:52;;;;;;;1.43;1.30;;;16.00;50.00;;;;;;10414539;28;20238;-68
2020/12/22 15:12:54;;;;;;;1.60;1.50;;;15.90;50.10;;;;;;10416136;28;20254;-68
2020/12/22 15:17:57;;;;;;;2.37;2.00;;;15.90;50.20;;;;;;10409909;28;20233;-68
2020/12/22 15:23:00;;;;;;;1.77;1.67;;;15.80;50.30;;;;;;10419834;28;20229;-68
2020/12/22 15:28:02;;;;;;;2.73;2.53;;;15.80;50.30;;;;;;10408170;28;20314;-68
2020/12/22 15:33:05;;;;;;;2.00;1.80;;;15.70;50.30;;;;;;10421012;28;20240;-68
2020/12/22 15:38:07;;;;;;;2.33;2.13;;;15.70;50.50;;;;;;10419631;28;20263;-68
2020/12/22 15:43:09;;;;;;;1.87;1.77;;;15.70;50.50;;;;;;10415666;28;20993;-68
2020/12/22 15:48:12;;;;;;;1.80;1.70;;;15.60;50.50;;;;;;10422332;28;20256;-67
2020/12/22 15:53:15;;;;;;;1.70;1.60;;;15.60;50.70;;;;;;10414078;28;20265;-68
2020/12/22 15:58:17;;;;;;;2.23;2.13;;;15.50;50.70;;;;;;10413368;28;20225;-67
2020/12/22 16:03:21;;;;;;;3.10;2.90;;;15.50;50.70;;;;;;10413808;28;20279;-67
2020/12/22 16:08:23;;;;;;;2.00;1.90;;;15.50;50.70;;;;;;10411964;28;20230;-68
2020/12/22 16:13:25;;;;;;;1.70;1.57;;;15.50;50.70;;;;;;10416113;28;20254;-67
2020/12/22 16:18:28;;;;;;;1.20;1.10;;;15.40;50.90;;;;;;10417212;28;20230;-68
2020/12/22 16:23:30;;;;;;;1.40;1.37;;;15.40;51.10;;;;;;10416759;28;20225;-67
2020/12/22 16:28:33;;;;;;;1.47;1.37;;;15.40;51.10;;;;;;10414539;28;20267;-67
2020/12/22 16:33:36;;;;;;;2.10;2.00;;;15.40;51.20;;;;;;10411404;28;20631;-68
2020/12/22 16:38:39;;;;;;;2.00;1.90;;;15.50;51.20;;;;;;10417602;28;20625;-67
2020/12/22 16:43:42;;;;;;;1.70;1.60;;;15.50;51.10;;;;;;10422033;28;20233;-67
2020/12/22 16:48:45;;;;;;;4.10;3.60;;;15.50;51.10;;;;;;10416348;28;20319;-68
2020/12/22 16:53:48;;;;;;;2.17;1.70;;;15.50;51.00;;;;;;10416140;28;20230;-67
2020/12/22 16:58:50;;;;;;;2.23;2.03;;;15.60;51.00;;;;;;10406448;28;20232;-67
2020/12/22 17:04:00;;;;;;;2.90;2.70;;;15.60;50.80;;;;;;10421345;28;20328;-68
2020/12/22 17:09:04;;;;;;;2.07;1.97;;;15.60;50.80;;;;;;10408527;28;20379;-68
2020/12/22 17:14:06;;;;;;;2.23;2.03;;;15.60;50.80;;;;;;10410324;28;20238;-68
2020/12/22 17:19:09;;;;;;;2.00;1.90;;;15.60;50.80;;;;;;10416040;28;20252;-68
2020/12/22 17:24:11;;;;;;;2.10;1.60;;;15.60;50.50;;;;;;10420945;28;20614;-68
2020/12/22 17:29:13;;;;;;;1.20;1.10;;;15.60;50.80;;;;;;10423988;28;20230;-68
2020/12/22 17:34:16;;;;;;;1.30;1.10;;;15.70;50.90;;;;;;10418153;28;20230;-68
2020/12/22 17:39:18;;;;;;;1.30;1.20;;;15.70;50.80;;;;;;10415037;28;20234;-68
2020/12/22 17:44:20;;;;;;;2.60;1.23;;;15.70;50.90;;;;;;10420036;28;20238;-68
2020/12/22 17:49:24;;;;;;;1.10;1.10;;;15.70;50.90;;;;;;10418648;28;20237;-68
2020/12/22 17:54:26;;;;;;;1.00;1.00;;;15.70;50.90;;;;;;10422991;28;20837;-68
2020/12/22 17:59:30;;;;;;;1.50;1.40;;;15.70;50.90;;;;;;10420301;28;20257;-68
2020/12/22 18:04:34;;;;;;;1.53;1.23;;;15.70;50.90;;;;;;10422169;28;20339;-67
2020/12/22 18:09:36;;;;;;;1.40;1.30;;;15.70;50.90;;;;;;10420148;28;20233;-68
2020/12/22 18:14:38;;;;;;;2.30;1.00;;;15.70;50.90;;;;;;10419192;28;20230;-68
2020/12/22 18:19:41;;;;;;;1.60;1.50;;;15.70;50.60;;;;;;10422576;28;20236;-68
2020/12/22 18:24:45;;;;;;;2.00;1.90;;;15.80;50.50;;;;;;10423393;28;20233;-68
2020/12/22 18:29:47;;;;;;;1.47;1.37;;;15.80;50.30;;;;;;10414889;28;20225;-68
2020/12/22 18:34:50;;;;;;;1.10;1.10;;;15.80;50.30;;;;;;10415504;28;20860;-67
2020/12/22 18:39:53;;;;;;;1.70;1.00;;;15.80;50.10;;;;;;10418492;28;20580;-68
2020/12/22 18:44:55;;;;;;;1.00;1.00;;;15.90;50.30;;;;;;10415178;28;20248;-68
2020/12/22 18:49:58;;;;;;;0.93;0.93;;;15.90;50.20;;;;;;10418536;28;20221;-68
2020/12/22 18:55:00;;;;;;;0.80;0.80;;;15.90;49.80;;;;;;10418027;28;20222;-68
2020/12/22 19:00:03;;;;;;;0.80;0.80;;;15.90;49.90;;;;;;10414584;28;20595;-68
2020/12/22 19:05:06;;;;;;;1.27;1.17;;;15.90;49.80;;;;;;10412357;28;20583;-68
2020/12/22 19:10:08;;;;;;;1.40;1.10;;;15.90;49.50;;;;;;10414313;28;20572;-68
2020/12/22 19:15:10;;;;;;;0.77;0.77;;;15.90;49.60;;;;;;10421838;28;20241;-68
2020/12/22 19:20:14;;;;;;;1.07;0.97;;;15.90;49.60;;;;;;10414037;28;20221;-68
2020/12/22 19:25:16;;;;;;;0.97;0.97;;;15.90;49.50;;;;;;10421290;28;20229;-68
2020/12/22 19:30:19;;;;;;;0.90;0.90;;;15.90;49.70;;;;;;10410971;28;20221;-68
2020/12/22 19:35:24;;;;;;;1.00;1.00;;;15.80;49.50;;;;;;10420411;28;20233;-68
2020/12/22 19:40:26;;;;;;;1.30;1.17;;;15.80;49.40;;;;;;10423018;28;20773;-68
2020/12/22 19:45:28;;;;;;;0.83;0.83;;;15.80;49.60;;;;;;10416453;28;20229;-68
2020/12/22 19:50:32;;;;;;;1.00;1.00;;;15.80;49.70;;;;;;10415195;28;20229;-68
2020/12/22 19:55:34;;;;;;;0.70;0.70;;;15.70;49.40;;;;;;10422819;28;20606;-68
2020/12/22 20:00:36;;;;;;;1.10;1.00;;;15.70;49.80;;;;;;10406837;28;20279;-67
2020/12/22 20:05:39;;;;;;;0.80;0.80;;;15.70;49.90;;;;;;10417197;28;20229;-68
2020/12/22 20:10:42;;;;;;;0.80;0.80;;;15.70;49.90;;;;;;10417374;28;20226;-68
2020/12/22 20:15:44;;;;;;;1.00;1.00;;;15.70;50.00;;;;;;10407837;28;20244;-68
2020/12/22 20:20:47;;;;;;;1.60;1.00;;;15.60;49.90;;;;;;10425871;28;20248;-68
2020/12/22 20:25:49;;;;;;;1.00;0.87;;;15.60;49.80;;;;;;10419878;28;20736;-68
2020/12/22 20:30:51;;;;;;;1.63;0.80;;;15.60;49.90;;;;;;10419148;28;20239;-68
2020/12/22 20:35:54;;;;;;;0.90;0.90;;;15.60;49.90;;;;;;10406518;28;20234;-68
2020/12/22 20:40:56;;;;;;;0.90;0.90;;;15.60;49.80;;;;;;10413157;28;20225;-68
2020/12/22 20:45:59;;;;;;;0.90;0.90;;;15.60;49.80;;;;;;10416750;28;20229;-68
2020/12/22 20:51:04;;;;;;;0.80;0.80;;;15.50;49.80;;;;;;10413474;28;20603;-71
2020/12/22 20:56:06;;;;;;;1.00;1.00;;;15.50;49.70;;;;;;10426687;28;20228;-69
2020/12/22 21:01:09;;;;;;;1.40;1.30;;;15.50;49.90;;;;;;10414109;28;20254;-68
2020/12/22 21:06:16;;;;;;;1.30;1.20;;;15.50;49.90;;;;;;10417361;28;20263;-68
2020/12/22 21:11:26;;;;;;;1.20;1.10;;;15.40;49.80;;;;;;10415316;28;20351;-67
2020/12/22 21:16:28;;;;;;;1.30;1.30;;;15.50;50.00;;;;;;10422188;28;20603;-68
2020/12/22 21:21:31;;;;;;;1.87;1.77;;;15.40;50.10;;;;;;10421513;28;21933;-68
2020/12/22 21:26:34;;;;;;;2.03;1.93;;;15.40;50.00;;;;;;10416092;28;20229;-68
2020/12/22 21:31:37;;;;;;;1.93;1.70;;;15.40;49.60;;;;;;10426776;28;20623;-68
2020/12/22 21:36:40;;;;;;;1.70;1.60;;;15.30;49.30;;;;;;10426124;28;20229;-68
2020/12/22 21:41:43;;;;;;;1.60;1.50;;;15.30;49.30;;;;;;10422255;28;20716;-68
2020/12/22 21:46:45;;;;;;;1.60;1.50;;;15.10;49.40;;;;;;10424083;28;20240;-68
2020/12/22 21:51:48;;;;;;;1.50;1.40;;;15.10;49.40;;;;;;10417649;28;20316;-68
2020/12/22 21:56:50;;;;;;;2.50;1.67;;;15.00;49.40;;;;;;10427417;28;20230;-68
2020/12/22 22:01:53;;;;;;;2.23;1.73;;;14.90;49.50;;;;;;10413628;28;20636;-68
2020/12/22 22:06:56;;;;;;;1.93;1.83;;;14.80;49.80;;;;;;10434278;28;20308;-67
2020/12/22 22:11:58;;;;;;;1.60;1.50;;;14.80;50.10;;;;;;10429601;28;20227;-68
2020/12/22 22:17:00;;;;;;;1.83;1.73;;;14.70;50.10;;;;;;10418077;28;20232;-67
2020/12/22 22:22:03;;;;;;;1.90;1.80;;;14.70;50.30;;;;;;10418028;28;20565;-68
2020/12/22 22:27:06;;;;;;;1.57;1.47;;;14.80;50.60;;;;;;10418405;28;20789;-68
2020/12/22 22:32:08;;;;;;;1.43;1.33;;;14.80;50.60;;;;;;10421709;28;20232;-68
2020/12/22 22:37:12;;;;;;;1.83;1.50;;;14.80;50.60;;;;;;10416234;28;20236;-68
2020/12/22 22:42:15;;;;;;;1.60;1.50;;;14.80;50.60;;;;;;10416668;28;20653;-68
2020/12/22 22:47:17;;;;;;;1.60;1.50;;;14.90;50.50;;;;;;10421509;28;20360;-68
2020/12/22 22:52:20;;;;;;;1.50;1.40;;;14.90;50.60;;;;;;10418069;28;20229;-68
2020/12/22 22:57:22;;;;;;;1.90;1.50;;;14.90;50.50;;;;;;10415898;28;20236;-68
2020/12/22 23:02:24;;;;;;;1.23;1.13;;;14.90;50.50;;;;;;10417133;28;20601;-68
2020/12/22 23:07:27;;;;;;;1.33;1.23;;;14.90;50.40;;;;;;10417647;28;20234;-68
2020/12/22 23:12:31;;;;;;;1.23;1.17;;;14.90;50.50;;;;;;10413576;28;20260;-68
2020/12/22 23:17:33;;;;;;;1.63;1.40;;;14.90;50.50;;;;;;10419288;28;20233;-67
2020/12/22 23:22:36;;;;;;;2.27;1.30;;;15.00;50.60;;;;;;10412196;28;20736;-68
2020/12/22 23:27:51;;;;;;;1.90;1.37;;;14.90;50.60;;;;;;10416794;28;20721;-68
2020/12/22 23:32:53;;;;;;;1.50;1.40;;;14.90;50.70;;;;;;10419006;28;20256;-68
2020/12/22 23:37:56;;;;;;;1.60;1.50;;;14.90;50.60;;;;;;10411802;28;20233;-68
2020/12/22 23:42:58;;;;;;;1.30;1.30;;;15.00;50.50;;;;;;10418467;28;20228;-68
2020/12/22 23:48:00;;;;;;;1.30;1.20;;;15.00;50.30;;;;;;10422288;28;20313;-68
2020/12/22 23:53:03;;;;;;;1.53;1.20;;;14.90;50.20;;;;;;10418004;28;20221;-68
2020/12/22 23:58:05;;;;;;;1.13;1.10;;;14.90;50.20;;;;;;10425312;28;20237;-68
